KEGE/EGE METAR and TAF weather

Enter ICAO airport designator
Station Type Date Time Source
KEGE METAR 2019/05/27 09:56 UTC NOAA

KEGE 270956Z AUTO 09004KT 10SM SCT100 03/01 A2994 RMK AO2 SLP107 T00330006


Station Type Date Time Source
KEGE Decoded METAR 2019/05/27 09:56 UTC NOAA

Eagle County Regional, CO, United States (KEGE) 39-39N 106-55W
May 27, 2019 - 05:56 AM EDT / 2019.05.27 0956 UTC
Wind: from the E (090 degrees) at 5 MPH (4 KT):0
Visibility: 10 mile(s):0
Sky conditions: partly cloudy
Temperature: 37.9 F (3.3 C)
Dew Point: 33.1 F (0.6 C)
Relative Humidity: 82%
Pressure (altimeter): 29.94 in. Hg (1013 hPa)
ob: KEGE 270956Z AUTO 09004KT 10SM SCT100 03/01 A2994 RMK AO2 SLP107 T00330006
cycle: 10

Station Type Date Time Source
KEGE TAF 2019/05/27 06:22 UTC NOAA

TAF KEGE 270520Z 2706/2806 00000KT P6SM SKC
FM271700 VRB04KT P6SM VCSH SCT060 BKN100
FM272300 24010KT 6SM -SHRA BR SCT050 BKN090
FM280000 23010KT 6SM -SHRA BR SCT045 BKN080
FM280500 22005KT P6SM SCT035 OVC060

Example: see airport list